Time;durP1;ratioP1;P1;durP2;ratioP2;P2;SDS_P1;SDS_P2;PMS_P1;PMS_P2;Temp;Humidity;BMP_temperature;BMP_pressure;BME280_temperature;BME280_humidity;BME280_pressure;Samples;Min_cycle;Max_cycle;Signal;HPM_P1;HPM_P2
2023/07/29 00:02:30;;;;;;;4.22;3.00;;;18.70;99.90;;;;;;2584939;54;20985;31
2023/07/29 00:05:09;;;;;;;4.65;3.30;;;18.60;99.90;;;;;;2583778;54;20869;31
2023/07/29 00:07:49;;;;;;;4.25;3.20;;;18.60;99.90;;;;;;2599318;47;20026;31
2023/07/29 00:10:22;;;;;;;3.85;2.90;;;18.60;99.90;;;;;;2585551;54;19941;31
2023/07/29 00:12:56;;;;;;;6.45;2.75;;;18.60;99.90;;;;;;2604110;47;20836;31
2023/07/29 00:15:31;;;;;;;6.28;3.78;;;18.60;99.90;;;;;;2585304;54;20082;31
2023/07/29 00:18:04;;;;;;;5.97;4.50;;;18.50;99.90;;;;;;2604079;47;20093;31
2023/07/29 00:20:39;;;;;;;5.20;3.78;;;18.50;99.90;;;;;;2585371;54;20906;31
2023/07/29 00:23:18;;;;;;;5.53;4.83;;;18.40;99.90;;;;;;2585485;54;20130;31
2023/07/29 00:25:52;;;;;;;4.70;3.90;;;18.40;99.90;;;;;;2585384;54;20034;31
2023/07/29 00:28:28;;;;;;;3.63;3.33;;;18.40;99.90;;;;;;2585421;54;20767;31
2023/07/29 00:31:03;;;;;;;6.55;4.50;;;18.30;99.90;;;;;;2596713;47;20151;31
2023/07/29 00:33:37;;;;;;;6.30;4.40;;;18.30;99.90;;;;;;2585307;54;20030;31
2023/07/29 00:36:12;;;;;;;5.72;4.57;;;18.20;99.90;;;;;;2587314;54;20957;31
2023/07/29 00:38:57;;;;;;;5.30;4.80;;;18.20;99.90;;;;;;2604358;46;21522;31
2023/07/29 00:41:29;;;;;;;5.30;4.80;;;18.20;99.90;;;;;;2586185;54;20886;31
2023/07/29 00:44:05;;;;;;;6.63;5.80;;;18.20;99.90;;;;;;2586646;54;20045;31
2023/07/29 00:46:39;;;;;;;11.45;6.93;;;18.10;99.90;;;;;;2586050;54;20564;31
2023/07/29 00:49:16;;;;;;;7.90;6.65;;;18.10;99.90;;;;;;2604797;46;21243;31
2023/07/29 00:51:51;;;;;;;9.63;7.82;;;18.00;99.90;;;;;;2586064;54;21723;31
2023/07/29 00:54:29;;;;;;;12.35;8.50;;;18.00;99.90;;;;;;2598528;46;20779;31
2023/07/29 00:57:04;;;;;;;8.40;7.60;;;18.00;99.90;;;;;;2586312;54;20038;31
2023/07/29 00:59:40;;;;;;;11.63;8.90;;;17.90;99.90;;;;;;2585369;54;20081;31
2023/07/29 01:02:14;;;;;;;8.85;7.63;;;17.90;99.90;;;;;;2586093;54;20184;31
2023/07/29 01:04:48;;;;;;;10.00;8.45;;;17.90;99.90;;;;;;2585452;54;19964;31
2023/07/29 01:07:31;;;;;;;11.87;9.00;;;17.90;99.90;;;;;;2586330;54;20029;31
2023/07/29 01:10:09;;;;;;;13.43;9.98;;;17.80;99.90;;;;;;2586276;54;20351;31
2023/07/29 01:12:45;;;;;;;7.97;7.17;;;17.80;99.90;;;;;;2586202;54;20767;31
2023/07/29 01:15:19;;;;;;;5.37;4.77;;;17.80;99.90;;;;;;2586168;54;20085;31
2023/07/29 01:17:59;;;;;;;7.80;4.90;;;17.80;99.90;;;;;;2586334;54;20023;31
2023/07/29 01:20:34;;;;;;;5.40;4.63;;;17.70;99.90;;;;;;2586301;54;20081;31
2023/07/29 01:23:13;;;;;;;5.38;4.75;;;17.70;99.90;;;;;;2585398;54;21321;31
2023/07/29 01:25:49;;;;;;;6.25;5.60;;;17.70;99.90;;;;;;2754229;31;21567;31
2023/07/29 01:28:24;;;;;;;11.60;8.00;;;17.60;99.90;;;;;;2683628;39;21498;31
2023/07/29 01:31:11;;;;;;;6.82;6.22;;;17.70;99.90;;;;;;2682757;39;20408;31
2023/07/29 01:33:50;;;;;;;10.15;8.90;;;17.60;99.90;;;;;;2683956;39;20474;31
2023/07/29 01:36:31;;;;;;;8.10;6.33;;;17.50;99.90;;;;;;2586389;54;20022;31
2023/07/29 01:39:05;;;;;;;6.57;5.97;;;17.60;99.90;;;;;;2586008;54;20852;31
2023/07/29 01:41:42;;;;;;;6.47;5.88;;;17.60;99.90;;;;;;2585938;54;20042;31
2023/07/29 01:44:19;;;;;;;7.60;6.80;;;17.60;99.90;;;;;;2586074;54;21551;31
2023/07/29 01:46:55;;;;;;;10.35;8.43;;;17.60;99.90;;;;;;2604520;46;20149;31
2023/07/29 01:49:29;;;;;;;9.13;7.10;;;17.50;99.90;;;;;;2702426;39;21583;31
2023/07/29 01:52:04;;;;;;;7.95;6.70;;;17.40;99.90;;;;;;2586054;54;20860;31
2023/07/29 01:54:36;;;;;;;8.95;7.18;;;17.40;99.90;;;;;;2586321;54;20039;31
2023/07/29 01:57:12;;;;;;;8.65;6.05;;;17.40;99.90;;;;;;2586027;54;20918;31
2023/07/29 01:59:45;;;;;;;14.10;8.80;;;17.30;99.90;;;;;;2585756;54;20026;31
2023/07/29 02:02:18;;;;;;;10.20;8.63;;;17.30;99.90;;;;;;2586250;54;20755;31
2023/07/29 02:04:53;;;;;;;7.80;6.30;;;17.30;99.90;;;;;;2586021;54;20037;31
2023/07/29 02:07:29;;;;;;;7.30;6.20;;;17.30;99.90;;;;;;2586040;54;20081;31
2023/07/29 02:10:03;;;;;;;8.75;5.95;;;17.30;99.90;;;;;;2683756;39;21576;31
2023/07/29 02:12:39;;;;;;;8.70;6.88;;;17.20;99.90;;;;;;2586339;54;21564;31
2023/07/29 02:15:19;;;;;;;6.53;5.13;;;17.20;99.90;;;;;;2586274;54;20477;31
2023/07/29 02:17:56;;;;;;;9.75;6.15;;;17.20;99.90;;;;;;2586271;54;20626;31
2023/07/29 02:20:30;;;;;;;7.05;6.20;;;17.20;99.90;;;;;;2604371;46;20037;31
2023/07/29 02:23:06;;;;;;;10.77;5.68;;;17.20;99.90;;;;;;2585950;54;20029;31
2023/07/29 02:25:42;;;;;;;6.90;5.97;;;17.20;99.90;;;;;;2585922;54;20859;31
2023/07/29 02:28:18;;;;;;;6.03;5.10;;;17.20;99.90;;;;;;2585906;54;20809;31
2023/07/29 02:30:53;;;;;;;7.20;5.53;;;17.20;99.90;;;;;;2755002;31;21590;31
2023/07/29 02:33:28;;;;;;;8.80;5.77;;;17.10;99.90;;;;;;2585957;54;20065;31
2023/07/29 02:36:02;;;;;;;9.40;8.17;;;17.10;99.90;;;;;;2585894;54;20302;31
2023/07/29 02:38:36;;;;;;;6.17;5.40;;;17.10;99.90;;;;;;2604189;46;20382;31
2023/07/29 02:41:12;;;;;;;6.50;5.13;;;17.00;99.90;;;;;;2584964;54;20056;31
2023/07/29 02:43:52;;;;;;;6.95;5.13;;;17.10;99.90;;;;;;2586057;54;21388;31
2023/07/29 02:46:25;;;;;;;7.35;6.55;;;17.10;99.90;;;;;;2585147;54;20812;31
2023/07/29 02:49:01;;;;;;;8.47;6.37;;;17.00;99.90;;;;;;2585947;54;20022;31
2023/07/29 02:51:42;;;;;;;10.20;5.90;;;17.00;99.90;;;;;;2585908;54;21194;31
2023/07/29 02:54:17;;;;;;;7.50;5.20;;;17.00;99.90;;;;;;2586102;54;20901;31
2023/07/29 02:56:53;;;;;;;8.55;5.70;;;16.90;99.90;;;;;;2585624;54;20060;31
2023/07/29 02:59:37;;;;;;;7.10;4.93;;;16.90;99.90;;;;;;2585930;54;20832;31
2023/07/29 03:02:16;;;;;;;6.57;4.63;;;16.90;99.90;;;;;;2585959;54;20027;31
2023/07/29 03:04:47;;;;;;;4.80;4.15;;;16.90;99.90;;;;;;2585874;54;20585;31
2023/07/29 03:07:22;;;;;;;7.93;5.88;;;16.90;99.90;;;;;;2585172;54;20026;31
2023/07/29 03:09:55;;;;;;;8.10;5.30;;;16.90;99.90;;;;;;2585824;54;20030;31
2023/07/29 03:12:28;;;;;;;6.47;5.38;;;16.90;99.90;;;;;;2585790;54;20029;31
2023/07/29 03:15:06;;;;;;;6.18;5.28;;;16.80;99.90;;;;;;2585142;54;22399;31
2023/07/29 03:17:40;;;;;;;5.33;3.80;;;16.80;99.90;;;;;;2585486;54;20902;31
2023/07/29 03:20:17;;;;;;;7.93;5.20;;;16.80;99.90;;;;;;2585987;54;20864;31
2023/07/29 03:22:52;;;;;;;6.45;5.38;;;16.90;99.90;;;;;;2603921;46;20092;31
2023/07/29 03:25:32;;;;;;;7.85;4.90;;;16.90;99.90;;;;;;2585063;54;20814;31
2023/07/29 03:28:08;;;;;;;8.60;5.75;;;16.90;99.90;;;;;;2603994;47;20119;31
2023/07/29 03:30:46;;;;;;;5.40;4.38;;;16.80;99.90;;;;;;2585926;54;20907;31
2023/07/29 03:33:21;;;;;;;7.15;6.00;;;16.80;99.90;;;;;;2585886;54;20805;31
2023/07/29 03:36:05;;;;;;;7.50;5.80;;;16.80;99.90;;;;;;2585994;54;20844;31
2023/07/29 03:38:41;;;;;;;6.63;4.13;;;16.80;99.90;;;;;;2584885;54;20041;31
2023/07/29 03:41:19;;;;;;;6.68;4.70;;;16.80;99.90;;;;;;2585775;54;20893;31
2023/07/29 03:43:54;;;;;;;8.80;5.30;;;16.90;99.90;;;;;;2585610;54;20165;31
2023/07/29 03:46:37;;;;;;;4.95;3.90;;;16.90;99.90;;;;;;2604401;47;20825;31
2023/07/29 03:49:13;;;;;;;5.60;4.35;;;16.90;99.90;;;;;;2585727;54;20856;31
2023/07/29 03:51:49;;;;;;;5.25;4.55;;;17.00;99.90;;;;;;2585730;54;20108;31
2023/07/29 03:54:24;;;;;;;5.83;4.67;;;17.00;99.90;;;;;;2584792;54;19998;31
2023/07/29 03:56:57;;;;;;;8.70;5.00;;;17.10;99.90;;;;;;2585951;54;20945;31
2023/07/29 03:59:35;;;;;;;6.07;3.80;;;17.10;99.90;;;;;;2585153;54;20071;31
2023/07/29 04:02:13;;;;;;;7.07;4.95;;;17.10;99.90;;;;;;2585363;54;20886;31
2023/07/29 04:04:48;;;;;;;6.25;4.50;;;17.10;99.90;;;;;;2585893;54;20743;31
2023/07/29 04:07:22;;;;;;;6.85;3.80;;;17.20;99.90;;;;;;2586014;54;20897;31
2023/07/29 04:09:58;;;;;;;5.67;3.63;;;17.20;99.90;;;;;;2586669;54;20037;31
2023/07/29 04:12:36;;;;;;;4.10;3.60;;;17.30;99.90;;;;;;2585511;54;20433;31
2023/07/29 04:15:18;;;;;;;5.80;4.23;;;17.30;99.90;;;;;;2586391;54;21095;31
2023/07/29 04:17:58;;;;;;;4.40;3.35;;;17.40;99.90;;;;;;2586587;54;20022;31
2023/07/29 04:20:34;;;;;;;3.38;2.33;;;17.40;99.90;;;;;;2586142;54;20060;31
2023/07/29 04:23:09;;;;;;;4.40;2.77;;;17.50;99.90;;;;;;2604733;46;20874;31
2023/07/29 04:25:46;;;;;;;5.88;2.90;;;17.50;99.90;;;;;;2586558;54;20053;31
2023/07/29 04:28:20;;;;;;;7.53;4.55;;;17.60;99.90;;;;;;2586445;54;20030;31
2023/07/29 04:30:54;;;;;;;6.03;3.80;;;17.60;99.90;;;;;;2586468;54;20731;31
2023/07/29 04:33:36;;;;;;;7.45;4.15;;;17.70;99.90;;;;;;2586271;54;20112;31
2023/07/29 04:36:14;;;;;;;7.28;4.93;;;17.70;99.90;;;;;;2586673;54;20862;31
2023/07/29 04:38:49;;;;;;;5.90;3.92;;;17.70;99.90;;;;;;2586313;54;20806;31
2023/07/29 04:41:22;;;;;;;6.68;3.72;;;17.80;99.90;;;;;;2586171;54;20894;31
2023/07/29 04:43:58;;;;;;;8.13;4.67;;;17.80;99.90;;;;;;2586259;54;20972;31
2023/07/29 04:46:37;;;;;;;5.55;3.97;;;17.90;99.90;;;;;;2586464;54;20077;31
2023/07/29 04:49:15;;;;;;;8.13;4.40;;;18.00;99.90;;;;;;2604977;46;20825;31
2023/07/29 04:51:49;;;;;;;6.60;5.40;;;18.00;99.90;;;;;;2586242;54;20477;31
2023/07/29 04:54:28;;;;;;;5.75;4.30;;;18.10;99.90;;;;;;2585730;54;20019;31
2023/07/29 04:57:01;;;;;;;5.75;3.70;;;18.10;99.90;;;;;;2586161;54;20031;31
2023/07/29 04:59:42;;;;;;;6.80;3.90;;;18.20;99.90;;;;;;2586427;54;20858;31
2023/07/29 05:02:17;;;;;;;8.32;4.95;;;18.20;99.90;;;;;;2586378;54;20034;31
2023/07/29 05:04:54;;;;;;;5.15;4.65;;;18.20;99.90;;;;;;2585370;54;20978;31
2023/07/29 05:07:26;;;;;;;5.35;4.78;;;18.20;99.90;;;;;;2586153;54;20023;31
2023/07/29 05:10:01;;;;;;;6.00;5.13;;;18.20;99.90;;;;;;2586235;54;20022;31
2023/07/29 05:12:38;;;;;;;6.50;4.00;;;18.30;99.90;;;;;;2586269;54;20246;31
2023/07/29 05:15:12;;;;;;;4.97;4.22;;;18.40;99.90;;;;;;2585556;54;20042;31
2023/07/29 05:17:49;;;;;;;10.50;4.82;;;18.50;99.90;;;;;;2586257;54;20142;31
2023/07/29 05:20:27;;;;;;;3.95;3.20;;;18.50;99.90;;;;;;2586009;54;20145;31
2023/07/29 05:22:59;;;;;;;;;;;18.60;99.90;;;;;;2586423;54;20027;31
2023/07/29 05:25:34;;;;;;;5.60;4.30;;;18.70;99.90;;;;;;2586178;54;19958;31
2023/07/29 05:28:09;;;;;;;5.90;3.30;;;18.80;99.90;;;;;;2586002;54;20029;31
2023/07/29 05:30:46;;;;;;;7.15;4.30;;;18.90;99.90;;;;;;2585781;54;20033;31
2023/07/29 05:33:20;;;;;;;5.13;4.10;;;19.00;99.90;;;;;;2585383;54;19942;31
2023/07/29 05:35:57;;;;;;;20.43;5.67;;;19.10;99.90;;;;;;2604551;46;20870;31
2023/07/29 05:38:33;;;;;;;18.05;4.50;;;19.20;99.90;;;;;;2586103;54;20871;31
2023/07/29 05:41:09;;;;;;;11.00;4.27;;;19.60;99.90;;;;;;2586121;54;20023;31
2023/07/29 05:43:46;;;;;;;7.37;3.63;;;19.90;99.90;;;;;;2592529;46;21302;31
2023/07/29 05:46:21;;;;;;;10.50;4.10;;;20.30;99.90;;;;;;2684044;39;21091;31
2023/07/29 05:48:55;;;;;;;7.88;3.70;;;20.70;99.90;;;;;;2586094;46;20022;31
2023/07/29 05:51:32;;;;;;;10.00;3.30;;;20.90;99.90;;;;;;2604958;46;20946;31
2023/07/29 05:54:04;;;;;;;3.65;2.97;;;21.20;99.90;;;;;;2604779;46;20960;31
2023/07/29 05:56:37;;;;;;;5.07;2.90;;;21.60;99.90;;;;;;2586531;54;20026;31
2023/07/29 05:59:16;;;;;;;3.50;2.55;;;21.90;99.90;;;;;;2586370;54;20890;31
2023/07/29 06:01:48;;;;;;;4.68;2.72;;;22.20;99.90;;;;;;2604840;46;20753;31
2023/07/29 06:04:22;;;;;;;6.25;2.58;;;22.60;99.90;;;;;;2586030;54;19934;31
2023/07/29 06:06:59;;;;;;;4.78;2.00;;;22.90;99.90;;;;;;2586333;54;20037;31
2023/07/29 06:09:32;;;;;;;5.00;1.92;;;23.30;99.90;;;;;;2586109;54;20877;31
2023/07/29 06:12:04;;;;;;;4.18;2.25;;;23.50;99.90;;;;;;2683799;39;20322;31
2023/07/29 06:14:39;;;;;;;5.13;1.95;;;23.90;99.90;;;;;;2585854;54;20117;31
2023/07/29 06:17:13;;;;;;;3.00;1.92;;;24.10;99.90;;;;;;2598460;46;20022;31
2023/07/29 06:19:45;;;;;;;4.78;2.35;;;24.40;99.90;;;;;;2586179;54;20033;31
2023/07/29 06:22:20;;;;;;;6.00;1.80;;;24.70;99.90;;;;;;2586035;54;20038;31
2023/07/29 06:24:54;;;;;;;2.35;1.50;;;25.00;99.90;;;;;;2604776;46;20078;31
2023/07/29 06:27:27;;;;;;;4.85;1.85;;;25.20;99.90;;;;;;2604509;46;20851;31
2023/07/29 06:30:00;;;;;;;2.93;1.40;;;25.40;99.90;;;;;;2604453;46;20034;31
2023/07/29 06:32:34;;;;;;;5.15;1.60;;;25.70;99.90;;;;;;2701823;39;20402;31
2023/07/29 06:35:10;;;;;;;2.58;1.60;;;26.00;99.90;;;;;;2586057;54;20030;31
2023/07/29 06:37:52;;;;;;;1.45;1.10;;;26.30;99.90;;;;;;2754663;31;21569;31
2023/07/29 06:40:26;;;;;;;3.67;1.50;;;26.60;99.90;;;;;;2585699;54;20039;31
2023/07/29 06:42:59;;;;;;;3.40;1.20;;;26.80;99.90;;;;;;2585641;54;20030;31
2023/07/29 06:45:35;;;;;;;2.75;1.40;;;27.00;99.90;;;;;;2585783;54;20846;31
2023/07/29 06:48:09;;;;;;;3.35;1.20;;;27.20;99.90;;;;;;2585569;54;20853;31
2023/07/29 06:50:42;;;;;;;3.35;1.20;;;27.40;99.90;;;;;;2585779;54;20053;31
2023/07/29 06:53:16;;;;;;;2.00;1.00;;;27.50;99.90;;;;;;2585802;54;21714;31
2023/07/29 06:55:49;;;;;;;3.55;0.90;;;27.70;99.90;;;;;;2585649;54;20116;31
2023/07/29 06:58:23;;;;;;;4.20;0.95;;;27.90;99.90;;;;;;2585863;54;20048;31
2023/07/29 07:00:57;;;;;;;2.50;1.05;;;28.00;99.90;;;;;;2604323;46;20126;31
2023/07/29 07:03:29;;;;;;;4.78;1.40;;;28.20;99.90;;;;;;2585990;54;20073;31
2023/07/29 07:06:03;;;;;;;3.42;1.30;;;28.40;99.90;;;;;;2586036;54;20030;31
2023/07/29 07:08:38;;;;;;;3.65;1.02;;;28.70;99.90;;;;;;2585757;54;20747;31
2023/07/29 07:11:12;;;;;;;;;;;28.80;99.90;;;;;;2585771;54;20086;31
2023/07/29 07:13:45;;;;;;;5.00;1.40;;;28.90;99.90;;;;;;2585507;54;20775;31
2023/07/29 07:16:18;;;;;;;1.97;1.10;;;29.00;99.90;;;;;;2604463;46;20253;31
2023/07/29 07:18:51;;;;;;;2.17;1.10;;;29.20;99.90;;;;;;2585950;54;20760;31
2023/07/29 07:21:24;;;;;;;3.35;1.20;;;29.30;99.90;;;;;;2585764;54;20129;31
2023/07/29 07:24:03;;;;;;;0.70;0.60;;;29.40;99.90;;;;;;2585750;54;20072;31
2023/07/29 07:26:38;;;;;;;2.20;1.10;;;29.50;99.90;;;;;;2585638;54;20988;31
2023/07/29 07:29:11;;;;;;;1.35;0.90;;;29.60;99.90;;;;;;2585827;54;20022;31
2023/07/29 07:31:45;;;;;;;3.33;1.13;;;29.80;99.90;;;;;;2585797;54;20022;31
2023/07/29 07:34:21;;;;;;;3.35;0.95;;;29.90;99.90;;;;;;2585645;54;20022;31
2023/07/29 07:36:53;;;;;;;4.00;1.20;;;30.10;99.90;;;;;;2585810;54;20493;31
2023/07/29 07:39:29;;;;;;;1.60;0.90;;;30.30;99.90;;;;;;2604357;47;21586;31
2023/07/29 07:42:02;;;;;;;3.47;1.10;;;30.30;99.90;;;;;;2585614;54;20887;31
2023/07/29 07:44:37;;;;;;;2.63;1.20;;;30.40;99.90;;;;;;2586493;54;20031;31
2023/07/29 07:47:13;;;;;;;3.33;0.98;;;30.50;99.90;;;;;;2586575;54;20903;31
2023/07/29 07:49:50;;;;;;;3.50;0.98;;;30.60;99.90;;;;;;2586384;54;20101;31
2023/07/29 07:52:24;;;;;;;1.67;1.23;;;30.70;99.90;;;;;;2586544;54;21560;31
2023/07/29 07:55:02;;;;;;;1.77;0.93;;;30.80;99.90;;;;;;2586034;54;20973;31
2023/07/29 07:57:34;;;;;;;2.28;0.95;;;30.90;99.90;;;;;;2586181;54;20027;31
2023/07/29 08:00:10;;;;;;;1.17;0.70;;;31.00;99.90;;;;;;2585964;54;20766;31
2023/07/29 08:02:48;;;;;;;3.40;1.00;;;31.10;99.90;;;;;;2586311;54;20097;31
2023/07/29 08:05:21;;;;;;;1.08;0.75;;;31.30;99.90;;;;;;2684173;39;20552;31
2023/07/29 08:07:53;;;;;;;1.35;0.90;;;31.60;99.90;;;;;;2586389;54;21229;31
2023/07/29 08:10:30;;;;;;;2.57;0.80;;;31.80;99.90;;;;;;2703020;39;21437;31
2023/07/29 08:13:06;;;;;;;2.65;0.80;;;31.90;99.90;;;;;;2586405;54;20913;31
2023/07/29 08:15:39;;;;;;;1.37;1.03;;;31.90;99.90;;;;;;2586271;54;20902;31
2023/07/29 08:18:13;;;;;;;2.22;0.80;;;32.00;99.90;;;;;;2683990;39;21853;31
2023/07/29 08:20:57;;;;;;;3.77;0.90;;;32.20;99.90;;;;;;2586513;54;20922;31
2023/07/29 08:23:29;;;;;;;1.65;0.80;;;32.20;99.90;;;;;;2684064;39;20765;31
2023/07/29 08:26:05;;;;;;;1.70;0.75;;;32.40;99.90;;;;;;2586549;54;20890;31
2023/07/29 08:28:40;;;;;;;3.50;1.00;;;32.70;99.90;;;;;;2586642;54;20870;31
2023/07/29 08:31:14;;;;;;;1.40;0.90;;;32.70;99.90;;;;;;2586451;54;20033;31
2023/07/29 08:33:48;;;;;;;2.78;1.17;;;32.70;99.90;;;;;;2586522;54;20982;31
2023/07/29 08:36:21;;;;;;;4.10;1.10;;;32.60;99.90;;;;;;2586345;54;20119;31
2023/07/29 08:38:54;;;;;;;2.40;0.90;;;32.70;99.90;;;;;;2586389;54;20261;31
2023/07/29 08:41:34;;;;;;;2.67;0.93;;;32.50;99.90;;;;;;2586339;54;20493;31
2023/07/29 08:44:15;;;;;;;2.05;1.10;;;32.40;99.90;;;;;;2586346;54;20026;31
2023/07/29 08:46:53;;;;;;;3.50;0.93;;;32.20;99.90;;;;;;2585968;54;19938;31
2023/07/29 08:49:25;;;;;;;3.00;0.80;;;32.00;99.90;;;;;;2586478;54;20026;31
2023/07/29 08:51:59;;;;;;;1.42;0.80;;;31.60;99.90;;;;;;2586193;54;20330;31
2023/07/29 08:54:30;;;;;;;1.20;0.88;;;31.40;99.90;;;;;;2586067;54;20053;31
2023/07/29 08:57:07;;;;;;;2.37;1.00;;;31.10;99.90;;;;;;2586282;54;20879;31
2023/07/29 08:59:40;;;;;;;1.83;0.70;;;30.90;99.90;;;;;;2586240;54;20022;31
2023/07/29 09:02:13;;;;;;;2.30;0.90;;;31.00;99.90;;;;;;2586136;54;20037;31
2023/07/29 09:04:47;;;;;;;1.20;0.80;;;31.30;99.90;;;;;;2586005;54;21007;31
2023/07/29 09:07:21;;;;;;;2.75;0.90;;;31.70;99.90;;;;;;2586017;54;20623;31
2023/07/29 09:09:53;;;;;;;2.15;0.80;;;32.00;99.90;;;;;;2586098;54;20199;31
2023/07/29 09:12:29;;;;;;;2.72;1.08;;;32.10;99.90;;;;;;2585461;54;20767;31
2023/07/29 09:15:01;;;;;;;1.00;0.80;;;32.10;99.90;;;;;;2586158;54;20879;31
2023/07/29 09:17:35;;;;;;;1.10;0.70;;;31.90;99.90;;;;;;2586374;54;20022;31
2023/07/29 09:20:09;;;;;;;0.80;0.63;;;31.80;99.90;;;;;;2586145;54;20031;31
2023/07/29 09:22:41;;;;;;;3.17;0.87;;;31.80;99.90;;;;;;2586093;54;20073;31
2023/07/29 09:25:16;;;;;;;1.92;0.65;;;31.70;99.90;;;;;;2586362;54;20856;31
2023/07/29 09:27:51;;;;;;;1.55;0.60;;;31.50;99.90;;;;;;2586174;54;20033;31
2023/07/29 09:30:32;;;;;;;1.92;0.80;;;31.30;99.90;;;;;;2586147;54;20900;31
2023/07/29 09:33:05;;;;;;;1.63;0.70;;;30.80;99.90;;;;;;2585325;54;20036;31
2023/07/29 09:35:39;;;;;;;1.00;0.70;;;30.90;99.90;;;;;;2586135;54;20238;31
2023/07/29 09:38:14;;;;;;;1.10;0.60;;;31.00;99.90;;;;;;2586310;54;20029;31
2023/07/29 09:40:46;;;;;;;1.00;0.80;;;30.90;99.90;;;;;;2585976;54;20953;31
2023/07/29 09:43:22;;;;;;;1.13;0.70;;;30.70;99.90;;;;;;2585971;54;20045;31
2023/07/29 09:45:56;;;;;;;1.90;0.65;;;30.90;99.90;;;;;;2586226;54;20949;31
2023/07/29 09:48:31;;;;;;;1.40;0.70;;;30.70;99.90;;;;;;2604566;46;20913;31
2023/07/29 09:51:13;;;;;;;3.40;0.68;;;30.60;99.90;;;;;;2684048;39;22650;31
2023/07/29 09:53:49;;;;;;;1.20;0.73;;;30.40;99.90;;;;;;2586208;54;20034;31
2023/07/29 09:56:27;;;;;;;1.55;0.80;;;30.30;99.90;;;;;;2754789;31;20527;31
2023/07/29 09:59:04;;;;;;;1.27;0.80;;;30.20;99.90;;;;;;2604654;46;20049;31
2023/07/29 10:01:36;;;;;;;2.67;0.77;;;30.10;99.90;;;;;;2586172;54;20740;31
2023/07/29 10:04:12;;;;;;;1.67;0.77;;;29.90;99.90;;;;;;2586207;54;20022;31
2023/07/29 10:06:46;;;;;;;1.50;0.85;;;29.80;99.90;;;;;;2604340;47;20841;31
2023/07/29 10:09:18;;;;;;;1.00;0.60;;;29.70;99.90;;;;;;2586209;54;20875;31
2023/07/29 10:11:53;;;;;;;2.80;0.90;;;29.50;99.90;;;;;;2586239;54;20030;31
2023/07/29 10:14:32;;;;;;;1.80;0.70;;;29.30;99.90;;;;;;2604479;46;20883;31
2023/07/29 10:17:04;;;;;;;2.45;0.70;;;29.40;99.90;;;;;;2585764;54;20814;31
2023/07/29 10:19:39;;;;;;;1.10;0.75;;;29.20;99.90;;;;;;2586075;54;21292;31
2023/07/29 10:22:11;;;;;;;0.98;0.68;;;29.10;99.90;;;;;;2585676;54;20897;31
2023/07/29 10:24:46;;;;;;;3.95;0.93;;;29.10;99.90;;;;;;2585359;54;20758;31
2023/07/29 10:27:20;;;;;;;1.63;0.90;;;29.50;99.90;;;;;;2585997;54;20036;31
2023/07/29 10:29:57;;;;;;;3.75;0.80;;;29.50;99.90;;;;;;2586095;54;20030;31
2023/07/29 10:32:31;;;;;;;3.17;0.80;;;29.50;99.90;;;;;;2585968;54;20480;31
2023/07/29 10:35:04;;;;;;;2.83;0.80;;;29.40;99.90;;;;;;2585819;54;20037;31
2023/07/29 10:37:38;;;;;;;1.27;0.80;;;29.40;99.90;;;;;;2586012;54;20023;31
2023/07/29 10:40:11;;;;;;;3.55;0.90;;;29.50;99.90;;;;;;2585925;54;20093;31
2023/07/29 10:43:04;;;;;;;1.17;1.00;;;29.70;99.90;;;;;;2585943;54;20033;31
2023/07/29 10:45:44;;;;;;;0.80;0.80;;;30.00;99.90;;;;;;2586118;54;20077;31
2023/07/29 10:48:43;;;;;;;2.07;0.80;;;30.40;99.90;;;;;;2585641;54;20051;31
2023/07/29 10:51:29;;;;;;;3.30;1.20;;;30.40;99.90;;;;;;2586061;54;20054;31
2023/07/29 10:54:01;;;;;;;1.67;1.10;;;30.30;99.90;;;;;;2585861;54;20953;31
2023/07/29 10:56:37;;;;;;;2.35;1.10;;;30.30;99.90;;;;;;2586108;54;20740;31
2023/07/29 10:59:33;;;;;;;3.40;1.20;;;30.60;99.90;;;;;;2585965;54;20684;31
2023/07/29 11:02:15;;;;;;;2.03;0.98;;;30.80;99.90;;;;;;2586021;54;20022;31
2023/07/29 11:04:50;;;;;;;1.52;0.90;;;31.00;99.90;;;;;;2585536;54;20031;31
2023/07/29 11:07:29;;;;;;;1.00;0.80;;;31.10;99.90;;;;;;2754690;31;22357;31
2023/07/29 11:10:04;;;;;;;1.35;1.00;;;31.30;99.90;;;;;;2585709;54;20258;31
2023/07/29 11:12:45;;;;;;;3.10;1.20;;;31.30;99.90;;;;;;2585704;54;20216;31
2023/07/29 11:15:20;;;;;;;1.67;1.23;;;31.50;99.90;;;;;;2585364;54;20112;31
2023/07/29 11:17:58;;;;;;;1.60;1.40;;;31.40;99.90;;;;;;2585649;54;21991;31
2023/07/29 11:20:30;;;;;;;4.25;1.70;;;31.20;99.90;;;;;;2586009;54;21013;31
2023/07/29 11:23:04;;;;;;;2.30;1.40;;;31.10;99.90;;;;;;2604211;46;20765;31
2023/07/29 11:25:38;;;;;;;2.00;1.80;;;31.10;99.90;;;;;;2585706;54;20093;31
2023/07/29 11:28:12;;;;;;;2.97;1.70;;;31.20;99.90;;;;;;2585743;54;20870;31
2023/07/29 11:30:46;;;;;;;3.28;1.83;;;31.30;99.90;;;;;;2604537;46;20069;31
2023/07/29 11:33:20;;;;;;;1.90;1.52;;;31.40;99.90;;;;;;2585723;54;20022;31
2023/07/29 11:35:55;;;;;;;3.42;1.30;;;31.40;99.90;;;;;;2586171;54;20747;31
2023/07/29 11:38:28;;;;;;;1.40;1.30;;;31.50;99.90;;;;;;2585756;54;20759;31
2023/07/29 11:41:08;;;;;;;3.63;1.13;;;31.60;99.90;;;;;;2585659;54;20047;31
2023/07/29 11:43:40;;;;;;;3.60;1.15;;;31.70;99.90;;;;;;2601214;47;20874;31
2023/07/29 11:46:14;;;;;;;1.93;1.23;;;31.80;99.90;;;;;;2587975;47;20034;31
2023/07/29 11:48:56;;;;;;;2.57;1.40;;;31.60;99.70;;;;;;2585733;54;21005;31
2023/07/29 11:51:29;;;;;;;2.17;1.30;;;31.40;99.90;;;;;;2585536;54;20259;31
2023/07/29 11:54:05;;;;;;;3.55;1.10;;;31.30;99.80;;;;;;2683519;39;20706;31
2023/07/29 11:56:37;;;;;;;3.00;1.20;;;31.10;99.90;;;;;;2585128;54;20148;31
2023/07/29 11:59:10;;;;;;;2.80;1.00;;;31.10;99.90;;;;;;2585717;54;20837;31
2023/07/29 12:01:43;;;;;;;0.80;0.73;;;31.00;99.90;;;;;;2585462;54;20093;31
2023/07/29 12:04:19;;;;;;;1.57;0.87;;;31.00;99.90;;;;;;2585635;54;20749;31
2023/07/29 12:06:53;;;;;;;1.90;0.75;;;31.10;99.90;;;;;;2585516;54;20113;31
2023/07/29 12:09:27;;;;;;;1.35;1.00;;;31.20;99.50;;;;;;2584996;54;21976;31
2023/07/29 12:12:03;;;;;;;2.88;1.20;;;31.20;99.80;;;;;;2584817;54;20757;31
2023/07/29 12:14:35;;;;;;;1.20;1.10;;;31.20;99.00;;;;;;2585143;54;20099;31
2023/07/29 12:17:08;;;;;;;2.15;0.82;;;31.10;99.20;;;;;;2700452;39;20713;31
2023/07/29 12:19:44;;;;;;;1.77;0.50;;;31.20;99.00;;;;;;2585153;54;20145;31
2023/07/29 12:22:20;;;;;;;2.00;0.70;;;31.20;98.40;;;;;;2585590;54;20117;31
2023/07/29 12:24:54;;;;;;;2.15;0.60;;;31.20;97.80;;;;;;2585402;54;20037;31
2023/07/29 12:27:27;;;;;;;3.13;0.80;;;31.10;98.10;;;;;;2585458;54;20026;31
2023/07/29 12:30:04;;;;;;;2.20;0.80;;;31.10;97.40;;;;;;2604734;46;20954;31
2023/07/29 12:32:46;;;;;;;1.60;0.60;;;30.90;97.70;;;;;;2586144;54;21136;31
2023/07/29 12:35:26;;;;;;;1.05;0.60;;;30.60;97.10;;;;;;2586596;54;20874;31
2023/07/29 12:38:04;;;;;;;2.97;0.80;;;30.50;97.90;;;;;;2586390;54;20030;31
2023/07/29 12:40:40;;;;;;;3.20;0.70;;;30.20;97.60;;;;;;2586296;54;20033;31
2023/07/29 12:43:16;;;;;;;1.80;0.60;;;30.00;97.60;;;;;;2586522;54;20863;31
2023/07/29 12:45:50;;;;;;;0.85;0.70;;;29.80;97.20;;;;;;2586520;54;20858;31
2023/07/29 12:48:26;;;;;;;3.83;0.50;;;29.70;97.90;;;;;;2586035;54;20023;31
2023/07/29 12:51:04;;;;;;;1.90;0.50;;;29.50;98.30;;;;;;2586052;54;20073;31
2023/07/29 12:53:40;;;;;;;1.85;0.70;;;29.50;99.60;;;;;;2586458;54;20145;31
2023/07/29 12:56:16;;;;;;;0.60;0.50;;;29.50;99.40;;;;;;2586235;54;20481;31
2023/07/29 12:58:49;;;;;;;;;;;29.50;99.90;;;;;;2586533;54;19981;31
2023/07/29 13:01:25;;;;;;;1.70;0.50;;;29.50;99.90;;;;;;2586180;54;19940;31
2023/07/29 13:04:02;;;;;;;4.10;0.60;;;29.50;99.90;;;;;;2604838;46;20046;31
2023/07/29 13:06:38;;;;;;;1.10;0.60;;;29.40;99.80;;;;;;2586188;54;20037;31
2023/07/29 13:09:13;;;;;;;1.30;0.60;;;29.40;99.90;;;;;;2586357;54;20157;31
2023/07/29 13:11:49;;;;;;;0.80;0.50;;;29.40;99.90;;;;;;2604604;46;20096;31
2023/07/29 13:14:26;;;;;;;3.13;0.60;;;29.30;99.90;;;;;;2586108;54;20022;31
2023/07/29 13:16:59;;;;;;;2.07;0.50;;;29.20;99.70;;;;;;2586298;54;20879;31
2023/07/29 13:19:33;;;;;;;1.23;0.55;;;29.20;99.90;;;;;;2605252;46;20257;31
2023/07/29 13:22:12;;;;;;;1.40;0.70;;;29.20;99.70;;;;;;2586343;54;20473;31
2023/07/29 13:24:45;;;;;;;1.90;0.50;;;29.30;99.90;;;;;;2586286;54;20079;31
2023/07/29 13:27:19;;;;;;;1.00;0.60;;;29.30;99.90;;;;;;2586232;54;20160;31
2023/07/29 13:29:52;;;;;;;1.85;0.55;;;29.40;99.90;;;;;;2586137;54;20046;31
2023/07/29 13:32:26;;;;;;;0.75;0.60;;;29.50;99.90;;;;;;2586357;54;20030;31
2023/07/29 13:35:02;;;;;;;4.82;0.65;;;29.50;99.90;;;;;;2585785;54;20250;31
2023/07/29 13:37:40;;;;;;;1.73;0.50;;;29.70;99.90;;;;;;2586274;54;20979;31
2023/07/29 13:40:12;;;;;;;1.25;0.60;;;29.60;99.90;;;;;;2586126;54;20956;31
2023/07/29 13:42:46;;;;;;;3.17;0.50;;;29.60;99.90;;;;;;2586393;54;20030;31